Time;durP1;ratioP1;P1;durP2;ratioP2;P2;SDS_P1;SDS_P2;PMS_P1;PMS_P2;Temp;Humidity;BMP_temperature;BMP_pressure;BME280_temperature;BME280_humidity;BME280_pressure;Samples;Min_cycle;Max_cycle;Signal;HPM_P1;HPM_P2
2021/12/06 00:00:27;;;;;;;;;0.75;0.75;;;;;9.12;61.03;100828.69;4989706;28;45591;-77
2021/12/06 00:02:57;;;;;;;;;0.00;0.00;;;;;8.99;60.38;100819.47;4965146;28;45453;-77
2021/12/06 00:05:26;;;;;;;;;1.00;0.00;;;;;8.85;60.79;100794.56;4993325;28;45314;-77
2021/12/06 00:07:52;;;;;;;;;0.67;0.00;;;;;8.34;58.68;100722.16;4989436;28;45691;-77
2021/12/06 00:10:18;;;;;;;;;0.50;0.00;;;;;8.77;59.54;100799.47;4992407;28;45616;-77
2021/12/06 00:12:44;;;;;;;;;1.00;0.00;;;;;8.76;59.83;100815.94;4990264;28;45779;-77
2021/12/06 00:15:10;;;;;;;;;0.00;0.00;;;;;8.77;59.96;100817.69;4990325;28;45491;-77
2021/12/06 00:17:37;;;;;;;;;1.00;0.00;;;;;8.70;59.98;100821.78;4992663;28;46417;-77
2021/12/06 00:20:06;;;;;;;;;1.67;0.00;;;;;8.50;59.06;100807.03;4992420;28;45620;-78
2021/12/06 00:22:32;;;;;;;;;0.33;0.00;;;;;8.61;59.55;100830.91;4991054;28;45373;-76
2021/12/06 00:24:57;;;;;;;;;0.00;0.00;;;;;8.28;59.60;100779.16;4988579;28;45375;-76
2021/12/06 00:27:23;;;;;;;;;0.67;0.00;;;;;8.60;59.31;100817.00;4987652;28;45594;-77
2021/12/06 00:29:50;;;;;;;;;0.00;0.00;;;;;8.74;59.26;100846.22;4974098;28;45482;-76
2021/12/06 00:32:17;;;;;;;;;0.33;0.00;;;;;8.13;59.73;100749.03;4962377;28;45720;-77
2021/12/06 00:34:43;;;;;;;;;0.33;0.00;;;;;8.20;60.10;100775.31;4976472;28;45602;-80
2021/12/06 00:37:20;;;;;;;;;0.00;0.00;;;;;8.55;60.23;100837.66;4989169;28;47546;-77
2021/12/06 00:39:53;;;;;;;;;0.00;0.00;;;;;8.51;59.89;100840.91;4975078;28;45927;-77
2021/12/06 00:42:21;;;;;;;;;1.50;0.00;;;;;8.35;60.23;100813.28;4994372;28;45352;-77
2021/12/06 00:44:48;;;;;;;;;1.25;0.00;;;;;8.29;60.51;100812.16;4978994;28;45593;-77
2021/12/06 00:47:14;;;;;;;;;2.00;0.00;;;;;8.34;60.57;100831.47;4979171;28;45377;-77
2021/12/06 00:49:40;;;;;;;;;0.00;0.00;;;;;8.29;60.56;100830.38;4992569;28;45542;-77
2021/12/06 00:52:08;;;;;;;;;0.00;0.00;;;;;8.10;59.36;100811.38;4995763;28;45625;-77
2021/12/06 00:54:35;;;;;;;;;0.50;0.00;;;;;8.27;59.96;100837.22;4966245;28;45589;-77
2021/12/06 00:57:07;;;;;;;;;0.00;0.00;;;;;8.30;59.51;100821.75;4973800;28;46363;-77
2021/12/06 00:59:33;;;;;;;;;1.75;0.00;;;;;8.43;59.51;100828.41;4992070;28;45643;-77
2021/12/06 01:02:00;;;;;;;;;0.67;0.00;;;;;8.34;59.53;100808.94;4996097;28;45408;-76
2021/12/06 01:04:28;;;;;;;;;0.00;0.00;;;;;8.38;58.35;100802.16;4995450;28;45519;-77
2021/12/06 01:06:54;;;;;;;;;0.00;0.00;;;;;8.64;58.33;100846.69;4979402;28;46446;-77
2021/12/06 01:09:19;;;;;;;;;1.00;0.00;;;;;8.44;58.99;100828.47;4976933;28;45602;-77
2021/12/06 01:11:45;;;;;;;;;1.00;1.00;;;;;8.23;59.11;100801.47;4975900;28;45503;-77
2021/12/06 01:14:11;;;;;;;;;0.75;0.00;;;;;8.32;59.39;100818.38;4995625;28;46315;-77
2021/12/06 01:16:36;;;;;;;;;0.50;0.00;;;;;8.03;59.71;100751.19;4990288;28;46954;-76
2021/12/06 01:19:04;;;;;;;;;0.00;0.00;;;;;8.48;59.48;100819.97;4995066;28;45542;-77
2021/12/06 01:21:47;;;;;;;;;1.00;0.00;;;;;8.52;59.96;100813.19;4978387;28;45504;-76
2021/12/06 01:24:15;;;;;;;;;1.33;0.00;;;;;8.69;59.71;100834.72;4992721;28;45456;-77
2021/12/06 01:29:46;;;;;;;;;0.00;0.00;;;;;8.82;58.98;100831.81;4993614;28;45448;-77
2021/12/06 01:40:03;;;;;;;;;0.33;0.00;;;;;9.08;57.26;100843.31;4990329;28;45849;-77
2021/12/06 01:42:29;;;;;;;;;2.00;0.25;;;;;8.92;56.86;100807.03;4993037;28;45557;-77
2021/12/06 01:44:57;;;;;;;;;1.33;0.00;;;;;9.07;56.76;100840.63;4992943;28;45467;-78
2021/12/06 01:47:29;;;;;;;;;0.00;0.00;;;;;8.75;57.23;100772.47;4992693;28;46193;-77
2021/12/06 01:50:03;;;;;;;;;1.33;0.00;;;;;8.93;57.67;100804.50;4976970;28;45439;-77
2021/12/06 01:52:35;;;;;;;;;0.50;0.00;;;;;8.93;57.07;100809.72;4992055;28;45515;-77
2021/12/06 01:55:01;;;;;;;;;1.25;0.00;;;;;9.20;58.95;100868.97;4967586;28;46253;-77
2021/12/06 01:57:28;;;;;;;;;0.00;0.00;;;;;9.15;62.17;100884.44;4991423;28;46727;-77
2021/12/06 01:59:55;;;;;;;;;0.00;0.00;;;;;8.91;63.72;100850.44;4984500;28;45434;-77
2021/12/06 02:02:23;;;;;;;;;1.00;0.00;;;;;8.85;63.55;100839.75;4994085;28;45348;-77
2021/12/06 02:04:48;;;;;;;;;0.00;0.00;;;;;8.84;63.70;100860.53;4989145;28;45602;-77
2021/12/06 02:07:19;;;;;;;;;2.00;1.00;;;;;8.80;65.31;100879.47;4995635;28;46642;-77
2021/12/06 02:09:46;;;;;;;;;0.67;0.00;;;;;8.70;65.05;100888.59;4991318;28;45486;-77
2021/12/06 02:12:13;;;;;;;;;0.00;0.00;;;;;8.34;65.91;100842.78;4991861;28;45487;-77
2021/12/06 02:14:59;;;;;;;;;0.25;0.00;;;;;8.22;66.56;100836.16;4966859;28;45475;-77
2021/12/06 02:17:30;;;;;;;;;0.00;0.00;;;;;8.22;66.36;100838.75;4994023;28;45486;-77
2021/12/06 02:20:04;;;;;;;;;0.00;0.00;;;;;8.22;66.21;100842.25;4994383;28;45551;-77
2021/12/06 02:22:33;;;;;;;;;0.00;0.00;;;;;8.55;65.83;100896.63;4992459;28;45530;-76
2021/12/06 02:25:00;;;;;;;;;0.00;0.00;;;;;8.41;66.36;100843.03;4975880;28;45419;-77
2021/12/06 02:27:28;;;;;;;;;1.00;0.00;;;;;8.50;66.54;100864.31;4973973;28;45455;-77
2021/12/06 02:29:56;;;;;;;;;0.33;0.00;;;;;8.51;67.95;100876.50;4994649;28;45512;-77
2021/12/06 02:32:22;;;;;;;;;0.75;0.00;;;;;8.51;66.92;100884.31;4979754;28;45604;-77
2021/12/06 02:34:51;;;;;;;;;0.00;0.00;;;;;8.30;67.71;100850.38;4995586;28;45562;-77
2021/12/06 02:37:23;;;;;;;;;0.75;0.00;;;;;8.40;66.88;100889.00;4994574;28;46209;-77
2021/12/06 02:39:50;;;;;;;;;0.00;0.00;;;;;8.35;67.29;100890.50;4991107;28;46155;-78
2021/12/06 02:42:17;;;;;;;;;0.00;0.00;;;;;8.31;67.98;100883.38;4972449;28;45503;-78
2021/12/06 02:44:47;;;;;;;;;0.00;0.00;;;;;8.33;66.92;100892.16;4993733;28;45328;-77
2021/12/06 02:47:14;;;;;;;;;0.75;0.00;;;;;8.21;67.23;100860.38;4995422;28;46653;-80
2021/12/06 02:49:40;;;;;;;;;1.00;0.00;;;;;8.38;66.46;100877.66;4976841;28;45548;-77
2021/12/06 02:52:07;;;;;;;;;1.00;0.00;;;;;8.40;67.13;100891.63;4973625;28;45591;-77
2021/12/06 02:54:34;;;;;;;;;1.00;0.00;;;;;8.41;67.13;100890.81;4972414;28;45387;-77
2021/12/06 02:59:42;;;;;;;;;0.00;0.00;;;;;8.16;69.28;100855.88;4994920;28;45381;-78
2021/12/06 03:02:12;;;;;;;;;1.00;0.00;;;;;8.00;68.62;100845.59;4992150;28;45305;-78
2021/12/06 03:04:40;;;;;;;;;0.00;0.00;;;;;7.85;67.57;100827.56;4993523;28;45297;-78
2021/12/06 03:07:08;;;;;;;;;0.00;0.00;;;;;7.98;69.05;100883.66;4993195;28;46620;-77
2021/12/06 03:09:37;;;;;;;;;0.00;0.00;;;;;7.52;68.99;100833.00;4997447;28;45380;-78
2021/12/06 03:12:08;;;;;;;;;0.00;0.00;;;;;7.61;70.52;100855.06;4997304;28;45554;-77
2021/12/06 03:14:40;;;;;;;;;0.00;0.00;;;;;7.25;70.40;100814.41;4997448;28;45550;-78
2021/12/06 03:17:11;;;;;;;;;1.50;0.25;;;;;7.50;71.49;100863.25;4979576;28;45761;-77
2021/12/06 03:19:37;;;;;;;;;0.25;0.00;;;;;7.29;70.67;100829.31;4996265;28;45223;-77
2021/12/06 03:22:05;;;;;;;;;0.00;0.00;;;;;7.02;69.72;100763.06;4985819;28;45473;-78
2021/12/06 03:24:31;;;;;;;;;1.00;1.00;;;;;7.75;71.03;100888.69;4972368;28;45798;-77
2021/12/06 03:26:57;;;;;;;;;0.00;0.00;;;;;7.75;68.55;100861.78;4982239;28;46448;-78
2021/12/06 03:29:23;;;;;;;;;1.50;1.00;;;;;7.73;69.99;100846.09;4973616;28;45567;-77
2021/12/06 03:31:50;;;;;;;;;1.00;0.00;;;;;7.81;68.78;100855.97;4959975;28;45480;-78
2021/12/06 03:34:17;;;;;;;;;1.00;1.00;;;;;7.90;69.27;100872.03;4984757;28;45587;-81
2021/12/06 03:36:43;;;;;;;;;0.00;0.00;;;;;7.81;69.97;100880.28;4988560;28;45539;-80
2021/12/06 03:39:20;;;;;;;;;1.25;1.00;;;;;7.74;70.92;100873.03;4994660;28;45298;-78
2021/12/06 03:41:51;;;;;;;;;0.25;0.00;;;;;7.81;68.80;100885.47;4959351;28;45497;-78
2021/12/06 03:44:18;;;;;;;;;1.00;1.00;;;;;7.76;70.37;100850.59;4986328;28;45620;-78
2021/12/06 03:46:44;;;;;;;;;4.00;1.00;;;;;7.85;70.85;100868.31;4985108;28;47785;-79
2021/12/06 03:49:13;;;;;;;;;4.75;3.75;;;;;7.83;71.11;100856.94;4989101;28;45567;-80
2021/12/06 03:51:39;;;;;;;;;0.00;0.00;;;;;7.78;70.68;100846.34;4977959;28;45353;-78
2021/12/06 03:54:07;;;;;;;;;1.00;0.25;;;;;7.95;70.59;100865.31;4969968;28;45638;-79
2021/12/06 03:56:38;;;;;;;;;0.00;0.00;;;;;7.76;70.18;100825.47;4976692;28;45666;-77
2021/12/06 03:59:04;;;;;;;;;1.00;0.00;;;;;8.06;71.17;100878.81;4959532;28;45512;-77
2021/12/06 04:01:31;;;;;;;;;0.00;0.00;;;;;7.92;71.04;100867.78;4977008;28;45448;-77
2021/12/06 04:03:58;;;;;;;;;0.00;0.00;;;;;7.76;70.89;100842.78;4977985;28;45234;-77
2021/12/06 04:06:23;;;;;;;;;0.00;0.00;;;;;7.80;71.58;100859.38;4967575;28;45729;-78
2021/12/06 04:08:49;;;;;;;;;0.00;0.00;;;;;7.81;71.41;100859.47;4983405;28;45513;-78
2021/12/06 04:11:15;;;;;;;;;1.75;0.75;;;;;7.83;71.38;100862.16;4991552;28;45363;-78
2021/12/06 04:13:41;;;;;;;;;0.50;0.00;;;;;7.29;70.77;100772.16;4961094;28;45452;-80
2021/12/06 04:16:07;;;;;;;;;0.00;0.00;;;;;7.45;72.17;100806.66;4993844;28;47029;-79
2021/12/06 04:18:32;;;;;;;;;1.00;0.00;;;;;7.56;71.59;100832.34;5000392;28;45798;-78
2021/12/06 04:20:58;;;;;;;;;1.00;0.00;;;;;7.84;71.08;100869.09;4998597;28;45556;-78
2021/12/06 04:23:24;;;;;;;;;0.00;0.00;;;;;7.95;70.74;100889.59;5000284;28;45445;-80
2021/12/06 04:25:50;;;;;;;;;2.00;0.25;;;;;7.97;70.46;100884.47;4998633;28;46594;-80
2021/12/06 04:28:19;;;;;;;;;1.50;0.00;;;;;7.89;71.29;100867.63;4998350;28;45282;-80
2021/12/06 04:30:46;;;;;;;;;1.00;0.75;;;;;7.95;70.82;100893.91;4984226;28;45441;-80
2021/12/06 04:33:12;;;;;;;;;1.25;0.00;;;;;7.66;71.73;100867.47;4979806;28;45302;-80
2021/12/06 04:35:38;;;;;;;;;1.00;0.00;;;;;7.86;71.92;100911.69;4991006;28;48153;-77
2021/12/06 04:38:04;;;;;;;;;1.00;0.00;;;;;7.71;71.34;100891.94;4985262;28;45689;-78
2021/12/06 04:40:30;;;;;;;;;0.00;0.00;;;;;7.83;71.25;100909.84;4976569;28;45356;-77
2021/12/06 04:42:57;;;;;;;;;0.00;0.00;;;;;7.76;71.32;100900.00;4998352;28;45482;-80
2021/12/06 04:45:23;;;;;;;;;0.25;0.00;;;;;7.76;72.16;100919.09;4992401;28;45955;-78
2021/12/06 04:47:50;;;;;;;;;0.75;0.75;;;;;7.66;72.52;100910.75;4970313;28;45473;-78
2021/12/06 04:50:18;;;;;;;;;3.50;3.00;;;;;7.39;72.12;100873.94;4964376;28;45505;-78
2021/12/06 04:52:44;;;;;;;;;3.00;0.50;;;;;7.62;70.10;100895.81;4978919;28;45579;-79
2021/12/06 04:55:28;;;;;;;;;2.00;1.00;;;;;7.68;70.99;100907.44;4962398;28;46244;-79
2021/12/06 04:57:53;;;;;;;;;1.00;0.00;;;;;7.67;68.78;100883.94;4989685;28;45471;-78
2021/12/06 05:00:48;;;;;;;;;1.25;1.00;;;;;7.97;69.86;100923.50;4982451;28;45617;-78
2021/12/06 05:03:15;;;;;;;;;1.50;1.00;;;;;7.79;69.47;100891.44;4968610;28;45584;-79
2021/12/06 05:05:48;;;;;;;;;1.00;0.00;;;;;8.02;68.15;100931.50;4977520;28;45541;-78
2021/12/06 05:08:23;;;;;;;;;2.00;0.00;;;;;8.05;68.55;100932.53;4961598;28;45363;-78
2021/12/06 05:10:50;;;;;;;;;1.33;0.67;;;;;8.06;67.28;100925.66;4976396;28;45575;-77
2021/12/06 05:13:17;;;;;;;;;0.00;0.00;;;;;7.61;67.21;100847.25;4978181;28;45671;-78
2021/12/06 05:15:43;;;;;;;;;0.75;0.75;;;;;8.11;66.43;100922.41;4987202;28;45463;-78
2021/12/06 05:18:09;;;;;;;;;0.75;0.25;;;;;8.15;69.67;100934.75;4976553;28;45572;-77
2021/12/06 05:20:36;;;;;;;;;2.00;2.00;;;;;8.19;68.71;100929.69;4978165;28;45605;-77
2021/12/06 05:23:03;;;;;;;;;10.00;10.00;;;;;8.11;69.06;100917.22;4991352;28;45421;-77
2021/12/06 05:25:29;;;;;;;;;25.75;21.50;;;;;8.14;69.46;100922.56;4986706;28;46381;-79
2021/12/06 05:27:57;;;;;;;;;50.50;39.50;;;;;7.93;68.56;100869.53;4983516;28;45464;-77
2021/12/06 05:30:25;;;;;;;;;20.75;20.25;;;;;7.91;69.43;100884.19;4978616;28;45679;-79
2021/12/06 05:32:53;;;;;;;;;15.50;13.50;;;;;8.13;70.16;100944.19;4992163;28;45357;-77
2021/12/06 05:35:20;;;;;;;;;50.00;42.00;;;;;7.76;70.52;100885.28;4978554;28;45750;-79
2021/12/06 05:37:50;;;;;;;;;23.25;21.50;;;;;7.81;70.63;100901.09;4992572;28;45426;-78
2021/12/06 05:40:22;;;;;;;;;7.00;4.00;;;;;7.97;70.46;100926.09;4964653;28;45507;-77
2021/12/06 05:42:48;;;;;;;;;2.50;1.75;;;;;8.04;70.39;100935.97;4989428;28;45662;-79
2021/12/06 05:45:17;;;;;;;;;2.00;1.00;;;;;8.07;70.44;100951.72;4986958;28;46214;-77
2021/12/06 05:47:43;;;;;;;;;0.00;0.00;;;;;7.96;70.87;100938.22;4977664;28;45310;-77
2021/12/06 05:50:09;;;;;;;;;0.00;0.00;;;;;7.93;70.64;100932.84;4993866;28;45509;-77
2021/12/06 05:52:35;;;;;;;;;4.00;2.00;;;;;8.00;70.23;100951.34;4981677;28;45255;-77
2021/12/06 05:55:01;;;;;;;;;1.00;1.00;;;;;7.79;70.87;100927.84;4989819;28;46537;-77
2021/12/06 05:57:27;;;;;;;;;1.00;0.00;;;;;7.83;70.79;100955.78;4988737;28;46033;-78
2021/12/06 05:59:52;;;;;;;;;2.00;1.00;;;;;7.66;70.41;100945.47;4990163;28;45791;-80
2021/12/06 06:02:18;;;;;;;;;1.50;1.00;;;;;7.55;70.35;100950.13;4989207;28;45704;-78
2021/12/06 06:04:44;;;;;;;;;2.25;2.25;;;;;7.51;71.28;100945.59;4973139;28;45621;-79
2021/12/06 06:07:10;;;;;;;;;1.00;0.00;;;;;7.42;71.29;100939.06;4979098;28;45528;-77
2021/12/06 06:09:35;;;;;;;;;1.25;1.00;;;;;7.30;71.83;100914.28;4976434;28;45666;-77
2021/12/06 06:12:03;;;;;;;;;0.00;0.00;;;;;7.60;71.53;100962.47;4990044;28;45658;-77
2021/12/06 06:14:29;;;;;;;;;0.00;0.00;;;;;7.33;71.51;100910.94;4971366;28;47164;-76
2021/12/06 06:16:56;;;;;;;;;1.00;0.00;;;;;7.41;70.91;100925.19;4986671;28;45635;-77
2021/12/06 06:19:24;;;;;;;;;0.00;0.00;;;;;7.31;70.99;100896.97;4989431;28;45452;-76
2021/12/06 06:21:52;;;;;;;;;0.25;0.00;;;;;7.49;70.21;100934.25;4989352;28;45585;-76
2021/12/06 06:24:17;;;;;;;;;2.00;0.00;;;;;7.28;70.95;100902.00;4986746;28;45757;-77
2021/12/06 06:26:43;;;;;;;;;1.75;1.00;;;;;7.36;72.76;100924.06;4976996;28;45551;-76
2021/12/06 06:29:09;;;;;;;;;1.00;1.00;;;;;7.53;71.91;100940.50;4989549;28;45530;-78
2021/12/06 06:31:36;;;;;;;;;35.75;35.25;;;;;7.56;71.31;100951.94;4988697;28;45481;-77
2021/12/06 06:34:03;;;;;;;;;27.50;22.00;;;;;7.55;72.23;100931.06;4986742;28;45529;-76
2021/12/06 06:36:29;;;;;;;;;2.25;1.75;;;;;7.30;71.63;100883.09;4990290;28;45590;-77
2021/12/06 06:38:54;;;;;;;;;1.00;1.00;;;;;7.48;71.52;100915.97;4989590;28;45591;-76
2021/12/06 06:41:20;;;;;;;;;1.00;0.00;;;;;7.48;71.31;100918.56;4973357;28;45559;-77
2021/12/06 06:43:46;;;;;;;;;1.00;1.00;;;;;7.13;71.50;100864.06;4972075;28;45678;-77
2021/12/06 06:46:12;;;;;;;;;1.00;1.00;;;;;7.37;72.01;100929.34;4989394;28;45567;-76
2021/12/06 06:48:38;;;;;;;;;2.50;1.25;;;;;7.21;72.38;100908.63;4981118;28;45453;-77
2021/12/06 06:51:04;;;;;;;;;2.00;1.25;;;;;7.32;72.78;100933.44;4997182;28;45394;-77
2021/12/06 06:53:29;;;;;;;;;1.25;1.25;;;;;7.19;72.82;100892.06;4983455;28;45518;-77
2021/12/06 06:55:56;;;;;;;;;8.50;7.00;;;;;6.82;71.74;100822.69;4989448;28;45937;-77
2021/12/06 06:58:22;;;;;;;;;5.00;2.00;;;;;7.55;72.82;100928.44;4960274;28;45394;-77
2021/12/06 07:00:48;;;;;;;;;25.25;22.75;;;;;7.53;72.89;100925.78;4959713;28;45489;-77
2021/12/06 07:03:14;;;;;;;;;5.00;2.00;;;;;7.27;73.17;100880.34;4976825;28;45528;-77
2021/12/06 07:05:40;;;;;;;;;2.25;1.50;;;;;7.60;72.75;100926.97;4960477;28;45520;-77
2021/12/06 07:08:06;;;;;;;;;7.00;5.50;;;;;7.46;73.10;100902.00;4995727;28;45528;-79
2021/12/06 07:10:32;;;;;;;;;3.00;3.00;;;;;7.51;72.85;100905.72;4997420;28;45642;-77
2021/12/06 07:13:03;;;;;;;;;25.50;22.50;;;;;7.62;72.66;100917.53;4995650;28;46631;-77
2021/12/06 07:15:31;;;;;;;;;3.25;2.00;;;;;7.72;72.28;100934.47;4996240;28;45316;-77
2021/12/06 07:17:57;;;;;;;;;3.00;1.00;;;;;7.47;72.67;100883.00;4995849;28;45993;-77
2021/12/06 07:20:23;;;;;;;;;8.25;6.50;;;;;7.62;71.95;100907.16;4997377;28;45559;-77
2021/12/06 07:22:52;;;;;;;;;51.25;42.25;;;;;7.82;72.07;100940.97;4979561;28;46694;-76
2021/12/06 07:25:20;;;;;;;;;9.50;8.25;;;;;7.84;72.44;100936.72;4979809;28;45468;-76
2021/12/06 07:27:46;;;;;;;;;51.25;42.25;;;;;7.80;71.72;100920.13;4979590;28;45465;-74
2021/12/06 07:30:13;;;;;;;;;32.75;30.75;;;;;7.87;72.36;100924.78;4993508;28;45427;-74
2021/12/06 07:32:40;;;;;;;;;24.50;22.25;;;;;7.90;72.61;100931.84;4977999;28;47331;-75
2021/12/06 07:35:07;;;;;;;;;28.25;27.00;;;;;7.85;72.41;100912.53;4977099;28;45391;-73
2021/12/06 07:37:33;;;;;;;;;33.25;30.00;;;;;7.94;72.22;100910.38;4958773;28;45413;-75
2021/12/06 07:39:58;;;;;;;;;25.75;19.75;;;;;8.07;72.20;100936.09;4976743;28;45404;-74
2021/12/06 07:42:24;;;;;;;;;13.50;10.50;;;;;8.13;71.96;100925.97;4967606;28;47174;-77
2021/12/06 07:44:50;;;;;;;;;57.75;46.50;;;;;8.19;72.97;100935.78;4995083;28;45537;-76
2021/12/06 07:47:16;;;;;;;;;60.25;48.25;;;;;8.12;72.94;100916.41;4954822;28;45358;-77
2021/12/06 07:49:45;;;;;;;;;78.50;60.00;;;;;8.07;72.85;100909.19;4975814;28;45550;-79
2021/12/06 07:52:11;;;;;;;;;25.00;22.75;;;;;8.24;72.25;100920.41;4958467;28;46839;-75
2021/12/06 07:54:38;;;;;;;;;21.00;19.25;;;;;8.39;72.27;100928.88;4976590;28;45329;-75
2021/12/06 07:57:06;;;;;;;;;37.25;32.75;;;;;8.38;72.39;100927.09;4974606;28;45482;-77
2021/12/06 07:59:33;;;;;;;;;28.50;25.50;;;;;8.29;72.09;100911.94;4958874;28;45353;-78
2021/12/06 08:01:59;;;;;;;;;21.50;20.25;;;;;8.16;72.12;100883.63;4958397;28;45391;-74
2021/12/06 08:04:25;;;;;;;;;32.25;32.25;;;;;8.38;72.58;100911.50;4958457;28;45406;-76
2021/12/06 08:06:50;;;;;;;;;7.25;7.25;;;;;8.33;71.40;100890.44;4986980;28;45479;-79
2021/12/06 08:09:17;;;;;;;;;21.75;17.00;;;;;8.61;72.06;100945.50;4995710;28;46141;-76
2021/12/06 08:11:44;;;;;;;;;26.25;24.00;;;;;8.06;71.83;100843.28;4995532;28;46497;-80
2021/12/06 08:14:10;;;;;;;;;28.50;23.25;;;;;8.47;72.12;100918.84;4994067;28;45315;-77
2021/12/06 08:16:40;;;;;;;;;32.00;28.00;;;;;8.31;71.83;100879.06;4995806;28;45412;-74
2021/12/06 08:19:07;;;;;;;;;44.75;38.75;;;;;8.69;72.22;100949.31;4986846;28;45459;-77
2021/12/06 08:21:34;;;;;;;;;67.50;51.75;;;;;8.71;71.95;100942.47;4985975;28;46709;-77
2021/12/06 08:24:00;;;;;;;;;28.50;24.25;;;;;8.62;71.90;100931.66;4983368;28;45578;-80
2021/12/06 08:26:32;;;;;;;;;10.00;9.00;;;;;8.54;72.22;100919.19;4986024;28;45543;-81
2021/12/06 08:29:00;;;;;;;;;13.00;11.00;;;;;8.76;72.04;100956.59;4988390;28;45508;-80
2021/12/06 08:31:29;;;;;;;;;10.25;8.50;;;;;8.73;72.04;100946.94;4958130;28;46867;-76
2021/12/06 08:33:55;;;;;;;;;36.00;31.50;;;;;8.72;71.83;100947.75;4965119;28;45962;-76
2021/12/06 08:36:22;;;;;;;;;37.25;28.00;;;;;8.71;72.28;100953.78;4991271;28;45951;-79
2021/12/06 08:38:48;;;;;;;;;25.00;23.50;;;;;8.78;71.84;100960.16;4985693;28;45475;-73
2021/12/06 08:41:18;;;;;;;;;18.25;14.25;;;;;8.88;72.05;100972.75;4982849;28;47956;-80
2021/12/06 08:43:46;;;;;;;;;37.25;27.50;;;;;8.51;72.31;100907.72;4966399;28;45496;-76
2021/12/06 08:46:23;;;;;;;;;25.00;21.00;;;;;8.78;71.99;100961.88;4986413;28;45371;-78
2021/12/06 08:48:50;;;;;;;;;25.50;23.00;;;;;8.90;72.58;100976.31;4985214;28;45460;-79
2021/12/06 08:51:21;;;;;;;;;11.25;8.50;;;;;8.89;72.06;100982.38;4984381;28;45505;-79
2021/12/06 08:53:48;;;;;;;;;35.25;29.25;;;;;8.92;72.59;100995.50;4984700;28;45210;-80
2021/12/06 08:56:14;;;;;;;;;18.50;15.00;;;;;8.98;72.98;100989.69;4989712;28;45741;-79
2021/12/06 08:58:41;;;;;;;;;23.25;20.00;;;;;8.97;72.75;100987.88;4978378;28;45527;-79
2021/12/06 09:01:07;;;;;;;;;35.25;29.50;;;;;9.04;72.68;100986.44;4995688;28;45467;-80
2021/12/06 09:03:34;;;;;;;;;36.50;31.50;;;;;9.02;72.74;100967.25;4987379;28;45511;-79
2021/12/06 09:06:01;;;;;;;;;47.50;38.25;;;;;9.00;72.55;100958.47;4972631;28;45278;-83
2021/12/06 09:08:27;;;;;;;;;38.00;32.25;;;;;9.29;72.70;100994.50;4983074;28;47235;-80
2021/12/06 09:10:53;;;;;;;;;23.75;19.50;;;;;9.03;72.46;100937.75;4972443;28;47879;-79
2021/12/06 09:13:22;;;;;;;;;37.00;29.75;;;;;9.40;72.29;100994.94;4964688;28;45430;-79
2021/12/06 09:15:48;;;;;;;;;64.00;49.50;;;;;9.33;72.56;100972.03;4979448;28;45538;-80
2021/12/06 09:18:14;;;;;;;;;70.50;52.75;;;;;9.51;72.14;101008.41;4970051;28;45576;-80
2021/12/06 09:20:44;;;;;;;;;64.00;44.75;;;;;9.53;72.72;101004.19;4987669;28;45591;-79
2021/12/06 09:23:12;;;;;;;;;69.00;55.00;;;;;9.34;73.07;100973.81;4968577;28;45478;-81
2021/12/06 09:25:38;;;;;;;;;85.25;64.50;;;;;9.37;73.19;100973.97;4997579;28;45474;-82
2021/12/06 09:28:04;;;;;;;;;63.25;48.50;;;;;9.57;72.69;101000.88;4997150;28;45536;-81
2021/12/06 09:30:33;;;;;;;;;54.25;44.25;;;;;9.56;72.84;100991.25;4967125;28;45552;-81
2021/12/06 09:33:00;;;;;;;;;35.25;34.00;;;;;9.83;72.93;101017.56;4961774;28;45393;-81
2021/12/06 09:35:28;;;;;;;;;11.75;10.75;;;;;9.84;73.07;100993.25;4992695;28;45617;-77
2021/12/06 09:37:56;;;;;;;;;14.25;13.75;;;;;9.86;72.96;100981.16;4994174;28;45522;-77
2021/12/06 09:40:23;;;;;;;;;13.50;12.00;;;;;9.95;72.81;100980.66;4996001;28;46095;-77
2021/12/06 09:42:49;;;;;;;;;13.50;12.50;;;;;10.05;72.38;100981.91;4975756;28;45546;-77
2021/12/06 09:45:22;;;;;;;;;4.00;3.50;;;;;10.14;71.90;100983.13;4979215;28;45440;-80
2021/12/06 09:47:52;;;;;;;;;5.75;5.00;;;;;10.20;71.71;100976.38;4978971;28;45326;-78
2021/12/06 09:50:23;;;;;;;;;25.50;19.00;;;;;10.18;72.02;100972.81;4966936;28;45803;-78
2021/12/06 09:52:49;;;;;;;;;24.50;23.75;;;;;10.36;72.05;101002.25;4978191;28;45478;-79
2021/12/06 09:55:15;;;;;;;;;14.00;14.00;;;;;10.42;72.18;101004.22;4978190;28;45367;-77
2021/12/06 09:57:41;;;;;;;;;28.75;21.00;;;;;10.47;71.83;100980.06;4978153;28;45530;-76
2021/12/06 10:00:09;;;;;;;;;40.00;34.75;;;;;10.64;71.84;101005.91;4977580;28;45491;-78
2021/12/06 10:02:35;;;;;;;;;8.00;7.00;;;;;10.71;71.59;101003.59;4977071;28;45253;-79
2021/12/06 10:05:01;;;;;;;;;27.25;25.00;;;;;10.87;71.39;100985.84;4977150;28;45522;-78
2021/12/06 10:07:27;;;;;;;;;34.00;29.00;;;;;11.07;70.53;100984.81;4978037;28;45383;-77
2021/12/06 10:09:53;;;;;;;;;11.50;11.00;;;;;11.00;70.70;100985.47;4981792;28;45357;-77
2021/12/06 10:12:22;;;;;;;;;13.50;12.00;;;;;10.77;70.57;100961.09;4986080;28;45814;-77
2021/12/06 10:14:48;;;;;;;;;29.75;23.00;;;;;10.82;70.55;100964.75;4989880;28;45483;-77
2021/12/06 10:17:15;;;;;;;;;22.75;19.75;;;;;10.88;70.90;100966.72;4994158;28;45464;-79
2021/12/06 10:19:43;;;;;;;;;34.00;32.50;;;;;10.86;70.95;100955.31;4963888;28;47905;-76
2021/12/06 10:22:09;;;;;;;;;31.50;28.00;;;;;10.89;70.72;100960.66;4988833;28;45595;-76
2021/12/06 10:24:35;;;;;;;;;16.50;13.25;;;;;10.73;71.04;100931.38;4988807;28;45568;-76
2021/12/06 10:27:09;;;;;;;;;12.75;12.00;;;;;10.92;70.39;100955.53;4978368;28;45452;-77
2021/12/06 10:30:07;;;;;;;;;21.50;21.25;;;;;11.13;70.77;100974.56;4981335;28;45645;-78
2021/12/06 10:32:40;;;;;;;;;34.75;27.00;;;;;11.06;70.37;100936.00;4992719;28;45427;-75
2021/12/06 10:35:11;;;;;;;;;21.50;19.25;;;;;11.24;70.28;100956.66;4983553;28;45439;-77
2021/12/06 10:37:45;;;;;;;;;16.75;14.00;;;;;11.35;69.96;100962.22;4985129;28;45526;-76
2021/12/06 10:40:31;;;;;;;;;14.00;10.00;;;;;11.56;70.03;100938.50;4988290;28;46046;-79
2021/12/06 10:43:03;;;;;;;;;4.00;4.00;;;;;11.94;68.58;100936.25;4972513;28;45419;-77
2021/12/06 10:45:34;;;;;;;;;5.25;5.00;;;;;12.03;68.05;100891.97;4968490;28;45546;-79
2021/12/06 10:48:08;;;;;;;;;14.25;13.25;;;;;12.10;67.20;100859.91;4964162;28;45611;-78
2021/12/06 10:50:41;;;;;;;;;8.33;6.67;;;;;12.44;67.08;100922.88;4988486;28;46083;-79
2021/12/06 10:53:08;;;;;;;;;11.67;10.67;;;;;12.33;67.46;100933.94;4977769;28;45641;-79
2021/12/06 10:55:38;;;;;;;;;13.75;13.75;;;;;12.30;67.64;100927.69;4978993;28;45652;-78
2021/12/06 10:58:12;;;;;;;;;14.00;12.50;;;;;12.14;67.61;100881.84;4978499;28;45603;-77
2021/12/06 11:00:41;;;;;;;;;28.00;26.00;;;;;11.48;67.38;100759.44;4996051;28;45687;-78
2021/12/06 11:03:18;;;;;;;;;16.25;14.00;;;;;12.40;67.62;100907.91;4970177;28;45728;-77
2021/12/06 11:05:44;;;;;;;;;24.25;18.50;;;;;11.07;67.38;100686.78;4973217;28;46669;-77
2021/12/06 11:08:14;;;;;;;;;15.50;12.00;;;;;12.23;67.32;100907.41;4970290;28;45522;-76
2021/12/06 11:10:54;;;;;;;;;8.33;7.33;;;;;12.19;67.71;100903.78;4969531;28;45517;-77
2021/12/06 11:13:27;;;;;;;;;16.25;15.50;;;;;11.02;67.43;100696.22;4973571;28;45666;-80
2021/12/06 11:16:11;;;;;;;;;16.00;15.00;;;;;12.11;67.46;100895.72;4986208;28;45619;-81
2021/12/06 11:18:53;;;;;;;;;6.67;6.67;;;;;11.75;67.49;100827.44;4974153;28;45446;-78
2021/12/06 11:21:25;;;;;;;;;5.33;4.67;;;;;12.05;67.51;100882.44;4980928;28;45625;-73
2021/12/06 11:23:58;;;;;;;;;13.25;12.25;;;;;12.03;68.71;100876.28;4974521;28;45491;-76
2021/12/06 11:26:23;;;;;;;;;6.00;4.33;;;;;12.02;69.02;100863.16;4992902;28;45813;-77
2021/12/06 11:28:49;;;;;;;;;3.00;3.00;;;;;11.91;68.84;100841.88;4976737;28;45504;-75
2021/12/06 11:31:17;;;;;;;;;5.67;5.00;;;;;12.09;68.53;100884.31;4976358;28;45521;-77
2021/12/06 11:33:43;;;;;;;;;7.67;5.67;;;;;12.10;69.15;100872.13;4989587;28;45547;-75
2021/12/06 11:36:21;;;;;;;;;3.67;2.67;;;;;12.09;69.40;100865.97;4984141;28;45516;-76
2021/12/06 11:38:56;;;;;;;;;9.00;7.25;;;;;12.11;69.79;100863.41;4986843;28;45581;-75
2021/12/06 11:41:22;;;;;;;;;9.00;8.00;;;;;12.08;69.77;100847.63;4970621;28;47967;-74
2021/12/06 11:43:48;;;;;;;;;7.00;7.00;;;;;12.02;69.71;100831.75;4989032;28;45616;-74